sensor_id;sensor_type;location;lat;lon;timestamp;temperature;humidity
26583;DHT22;14230;45.382;10.998;2023-03-23T00:01:14;12.40;99.90
26583;DHT22;14230;45.382;10.998;2023-03-23T00:03:41;12.40;99.90
26583;DHT22;14230;45.382;10.998;2023-03-23T00:06:08;12.40;99.90
26583;DHT22;14230;45.382;10.998;2023-03-23T00:08:37;12.30;99.90
26583;DHT22;14230;45.382;10.998;2023-03-23T00:11:04;12.30;99.90
26583;DHT22;14230;45.382;10.998;2023-03-23T00:13:31;12.30;99.90
26583;DHT22;14230;45.382;10.998;2023-03-23T00:15:59;12.20;99.90
26583;DHT22;14230;45.382;10.998;2023-03-23T00:18:25;12.30;99.90
26583;DHT22;14230;45.382;10.998;2023-03-23T00:20:55;12.30;99.90
26583;DHT22;14230;45.382;10.998;2023-03-23T00:23:25;12.30;99.90
26583;DHT22;14230;45.382;10.998;2023-03-23T00:25:54;12.50;99.90
26583;DHT22;14230;45.382;10.998;2023-03-23T00:28:23;12.50;99.90
26583;DHT22;14230;45.382;10.998;2023-03-23T00:31:05;12.30;99.90
26583;DHT22;14230;45.382;10.998;2023-03-23T00:33:36;12.40;99.90
26583;DHT22;14230;45.382;10.998;2023-03-23T00:36:08;12.40;99.90
26583;DHT22;14230;45.382;10.998;2023-03-23T00:38:36;12.30;99.90
26583;DHT22;14230;45.382;10.998;2023-03-23T00:41:02;12.20;99.90
26583;DHT22;14230;45.382;10.998;2023-03-23T00:43:30;12.20;99.90
26583;DHT22;14230;45.382;10.998;2023-03-23T00:45:57;12.10;99.90
26583;DHT22;14230;45.382;10.998;2023-03-23T00:48:28;12.00;99.90
26583;DHT22;14230;45.382;10.998;2023-03-23T00:50:55;12.00;99.90
26583;DHT22;14230;45.382;10.998;2023-03-23T00:53:22;12.00;99.90
26583;DHT22;14230;45.382;10.998;2023-03-23T00:55:49;12.00;99.90
26583;DHT22;14230;45.382;10.998;2023-03-23T00:58:16;12.00;99.90
26583;DHT22;14230;45.382;10.998;2023-03-23T01:00:43;11.90;99.90
26583;DHT22;14230;45.382;10.998;2023-03-23T01:03:10;12.00;99.90
26583;DHT22;14230;45.382;10.998;2023-03-23T01:05:45;12.00;99.90
26583;DHT22;14230;45.382;10.998;2023-03-23T01:08:14;12.00;99.90
26583;DHT22;14230;45.382;10.998;2023-03-23T01:10:40;11.90;99.90
26583;DHT22;14230;45.382;10.998;2023-03-23T01:13:09;11.90;99.90
26583;DHT22;14230;45.382;10.998;2023-03-23T01:15:36;11.90;99.90
26583;DHT22;14230;45.382;10.998;2023-03-23T01:18:04;11.80;99.90
26583;DHT22;14230;45.382;10.998;2023-03-23T01:20:30;11.70;99.90
26583;DHT22;14230;45.382;10.998;2023-03-23T01:22:58;11.80;99.90
26583;DHT22;14230;45.382;10.998;2023-03-23T01:25:29;11.90;99.90
26583;DHT22;14230;45.382;10.998;2023-03-23T01:27:57;11.80;99.90
26583;DHT22;14230;45.382;10.998;2023-03-23T01:30:25;11.90;99.90
26583;DHT22;14230;45.382;10.998;2023-03-23T01:32:53;11.80;99.90
26583;DHT22;14230;45.382;10.998;2023-03-23T01:35:20;11.80;99.90
26583;DHT22;14230;45.382;10.998;2023-03-23T01:37:47;11.80;99.90
26583;DHT22;14230;45.382;10.998;2023-03-23T01:40:14;11.70;99.90
26583;DHT22;14230;45.382;10.998;2023-03-23T01:42:42;11.70;99.90
26583;DHT22;14230;45.382;10.998;2023-03-23T01:48:15;11.60;99.90
26583;DHT22;14230;45.382;10.998;2023-03-23T01:51:09;11.70;99.90
26583;DHT22;14230;45.382;10.998;2023-03-23T01:53:39;11.60;99.90
26583;DHT22;14230;45.382;10.998;2023-03-23T01:56:08;11.60;99.90
26583;DHT22;14230;45.382;10.998;2023-03-23T01:58:38;11.70;99.90
26583;DHT22;14230;45.382;10.998;2023-03-23T02:01:09;11.70;99.90
26583;DHT22;14230;45.382;10.998;2023-03-23T02:03:40;11.70;99.90
26583;DHT22;14230;45.382;10.998;2023-03-23T02:06:07;11.70;99.90
26583;DHT22;14230;45.382;10.998;2023-03-23T02:08:38;11.70;99.90
26583;DHT22;14230;45.382;10.998;2023-03-23T02:11:18;11.70;99.90
26583;DHT22;14230;45.382;10.998;2023-03-23T02:13:45;11.60;99.90
26583;DHT22;14230;45.382;10.998;2023-03-23T02:24:50;11.60;99.90
26583;DHT22;14230;45.382;10.998;2023-03-23T02:27:27;11.70;99.90
26583;DHT22;14230;45.382;10.998;2023-03-23T02:30:08;11.70;99.90
26583;DHT22;14230;45.382;10.998;2023-03-23T02:38:06;11.50;99.90
26583;DHT22;14230;45.382;10.998;2023-03-23T02:40:43;11.50;99.90
26583;DHT22;14230;45.382;10.998;2023-03-23T02:43:17;11.40;99.90
26583;DHT22;14230;45.382;10.998;2023-03-23T02:45:46;11.40;99.90
26583;DHT22;14230;45.382;10.998;2023-03-23T02:48:15;11.40;99.90
26583;DHT22;14230;45.382;10.998;2023-03-23T02:50:45;11.40;99.90
26583;DHT22;14230;45.382;10.998;2023-03-23T02:53:16;11.30;99.90
26583;DHT22;14230;45.382;10.998;2023-03-23T02:55:44;11.30;99.90
26583;DHT22;14230;45.382;10.998;2023-03-23T02:58:16;11.30;99.90
26583;DHT22;14230;45.382;10.998;2023-03-23T03:00:45;11.40;99.90
26583;DHT22;14230;45.382;10.998;2023-03-23T03:03:17;11.50;99.90
26583;DHT22;14230;45.382;10.998;2023-03-23T03:11:35;11.40;99.90
26583;DHT22;14230;45.382;10.998;2023-03-23T03:14:10;11.30;99.90
26583;DHT22;14230;45.382;10.998;2023-03-23T03:17:01;11.20;99.90
26583;DHT22;14230;45.382;10.998;2023-03-23T03:19:33;11.20;99.90
26583;DHT22;14230;45.382;10.998;2023-03-23T03:22:02;11.20;99.90
26583;DHT22;14230;45.382;10.998;2023-03-23T03:24:40;11.10;99.90
26583;DHT22;14230;45.382;10.998;2023-03-23T03:27:13;11.10;99.90
26583;DHT22;14230;45.382;10.998;2023-03-23T03:29:53;11.10;99.90
26583;DHT22;14230;45.382;10.998;2023-03-23T03:32:24;11.20;99.90
26583;DHT22;14230;45.382;10.998;2023-03-23T03:34:51;11.20;99.90
26583;DHT22;14230;45.382;10.998;2023-03-23T03:37:19;11.30;99.90
26583;DHT22;14230;45.382;10.998;2023-03-23T03:39:49;11.30;99.90
26583;DHT22;14230;45.382;10.998;2023-03-23T03:42:17;11.20;99.90
26583;DHT22;14230;45.382;10.998;2023-03-23T03:44:43;11.20;99.90
26583;DHT22;14230;45.382;10.998;2023-03-23T03:47:10;11.20;99.90
26583;DHT22;14230;45.382;10.998;2023-03-23T03:49:36;11.20;99.90
26583;DHT22;14230;45.382;10.998;2023-03-23T03:52:02;11.20;99.90
26583;DHT22;14230;45.382;10.998;2023-03-23T03:54:39;11.20;99.90
26583;DHT22;14230;45.382;10.998;2023-03-23T03:57:06;11.10;99.90
26583;DHT22;14230;45.382;10.998;2023-03-23T03:59:34;11.10;99.90
26583;DHT22;14230;45.382;10.998;2023-03-23T04:02:21;11.00;99.90
26583;DHT22;14230;45.382;10.998;2023-03-23T04:04:50;11.00;99.90
26583;DHT22;14230;45.382;10.998;2023-03-23T04:07:18;11.00;99.90
26583;DHT22;14230;45.382;10.998;2023-03-23T04:09:45;11.00;99.90
26583;DHT22;14230;45.382;10.998;2023-03-23T04:12:15;11.10;99.90
26583;DHT22;14230;45.382;10.998;2023-03-23T04:14:57;11.00;99.90
26583;DHT22;14230;45.382;10.998;2023-03-23T04:17:32;11.00;99.90
26583;DHT22;14230;45.382;10.998;2023-03-23T04:19:58;10.90;99.90
26583;DHT22;14230;45.382;10.998;2023-03-23T04:22:33;10.80;99.90
26583;DHT22;14230;45.382;10.998;2023-03-23T04:25:01;10.70;99.90
26583;DHT22;14230;45.382;10.998;2023-03-23T04:27:34;10.60;99.90
26583;DHT22;14230;45.382;10.998;2023-03-23T04:30:03;10.50;99.90
26583;DHT22;14230;45.382;10.998;2023-03-23T04:32:37;10.40;99.90
26583;DHT22;14230;45.382;10.998;2023-03-23T04:35:12;10.50;99.90
26583;DHT22;14230;45.382;10.998;2023-03-23T04:37:48;10.50;99.90
26583;DHT22;14230;45.382;10.998;2023-03-23T04:40:19;10.30;99.90
26583;DHT22;14230;45.382;10.998;2023-03-23T04:42:56;10.20;99.90
26583;DHT22;14230;45.382;10.998;2023-03-23T04:45:42;10.20;99.90
26583;DHT22;14230;45.382;10.998;2023-03-23T04:48:12;10.10;99.90
26583;DHT22;14230;45.382;10.998;2023-03-23T04:50:56;10.10;99.90
26583;DHT22;14230;45.382;10.998;2023-03-23T04:53:29;10.00;99.90
26583;DHT22;14230;45.382;10.998;2023-03-23T04:55:57;10.00;99.90
26583;DHT22;14230;45.382;10.998;2023-03-23T04:58:26;10.00;99.90
26583;DHT22;14230;45.382;10.998;2023-03-23T05:01:23;10.00;99.90
26583;DHT22;14230;45.382;10.998;2023-03-23T05:04:06;10.20;99.90
26583;DHT22;14230;45.382;10.998;2023-03-23T05:06:34;10.30;99.90
26583;DHT22;14230;45.382;10.998;2023-03-23T05:09:08;10.30;99.90
26583;DHT22;14230;45.382;10.998;2023-03-23T05:11:34;10.40;99.90
26583;DHT22;14230;45.382;10.998;2023-03-23T05:14:02;10.50;99.90
26583;DHT22;14230;45.382;10.998;2023-03-23T05:16:29;10.40;99.90
26583;DHT22;14230;45.382;10.998;2023-03-23T05:18:57;10.30;99.90
26583;DHT22;14230;45.382;10.998;2023-03-23T05:21:26;10.40;99.90
26583;DHT22;14230;45.382;10.998;2023-03-23T05:23:54;10.50;99.90
26583;DHT22;14230;45.382;10.998;2023-03-23T05:26:21;10.50;99.90
26583;DHT22;14230;45.382;10.998;2023-03-23T05:28:52;10.60;99.90
26583;DHT22;14230;45.382;10.998;2023-03-23T05:31:37;10.70;99.90
26583;DHT22;14230;45.382;10.998;2023-03-23T05:34:03;10.80;99.90
26583;DHT22;14230;45.382;10.998;2023-03-23T05:36:49;10.80;99.90
26583;DHT22;14230;45.382;10.998;2023-03-23T05:39:45;10.90;99.90
26583;DHT22;14230;45.382;10.998;2023-03-23T05:42:14;11.00;99.90
26583;DHT22;14230;45.382;10.998;2023-03-23T05:44:58;11.00;99.90
26583;DHT22;14230;45.382;10.998;2023-03-23T05:47:25;11.10;99.90
26583;DHT22;14230;45.382;10.998;2023-03-23T05:49:56;11.00;99.90
26583;DHT22;14230;45.382;10.998;2023-03-23T05:52:24;11.10;99.90
26583;DHT22;14230;45.382;10.998;2023-03-23T05:54:52;11.20;99.90
26583;DHT22;14230;45.382;10.998;2023-03-23T05:57:20;11.20;99.90
26583;DHT22;14230;45.382;10.998;2023-03-23T06:00:00;11.30;99.90
26583;DHT22;14230;45.382;10.998;2023-03-23T06:02:39;11.40;99.90
26583;DHT22;14230;45.382;10.998;2023-03-23T06:05:12;11.40;99.90
26583;DHT22;14230;45.382;10.998;2023-03-23T06:07:41;11.40;99.90
26583;DHT22;14230;45.382;10.998;2023-03-23T06:10:09;11.50;99.90
26583;DHT22;14230;45.382;10.998;2023-03-23T06:12:42;11.60;99.90
26583;DHT22;14230;45.382;10.998;2023-03-23T06:15:34;11.70;99.90
26583;DHT22;14230;45.382;10.998;2023-03-23T06:18:04;11.90;99.90
26583;DHT22;14230;45.382;10.998;2023-03-23T06:20:44;12.00;99.90
26583;DHT22;14230;45.382;10.998;2023-03-23T06:23:26;12.20;99.90
26583;DHT22;14230;45.382;10.998;2023-03-23T06:25:58;12.30;99.90
26583;DHT22;14230;45.382;10.998;2023-03-23T06:28:26;12.50;99.90
26583;DHT22;14230;45.382;10.998;2023-03-23T06:30:59;12.60;99.90
26583;DHT22;14230;45.382;10.998;2023-03-23T06:33:26;12.70;99.90
26583;DHT22;14230;45.382;10.998;2023-03-23T06:36:13;12.80;99.90
26583;DHT22;14230;45.382;10.998;2023-03-23T06:38:48;13.00;99.90
26583;DHT22;14230;45.382;10.998;2023-03-23T06:41:19;13.40;99.90
26583;DHT22;14230;45.382;10.998;2023-03-23T06:43:45;13.50;99.90
26583;DHT22;14230;45.382;10.998;2023-03-23T06:46:14;13.70;99.90
26583;DHT22;14230;45.382;10.998;2023-03-23T06:48:41;13.80;99.90
26583;DHT22;14230;45.382;10.998;2023-03-23T06:51:10;13.90;99.90
26583;DHT22;14230;45.382;10.998;2023-03-23T06:53:39;14.00;99.90
26583;DHT22;14230;45.382;10.998;2023-03-23T06:56:10;14.10;99.90
26583;DHT22;14230;45.382;10.998;2023-03-23T06:58:40;14.20;99.90
26583;DHT22;14230;45.382;10.998;2023-03-23T07:01:08;14.40;99.90
26583;DHT22;14230;45.382;10.998;2023-03-23T07:03:41;14.70;99.90
26583;DHT22;14230;45.382;10.998;2023-03-23T07:06:12;14.90;99.90
26583;DHT22;14230;45.382;10.998;2023-03-23T07:08:47;14.90;99.90
26583;DHT22;14230;45.382;10.998;2023-03-23T07:11:21;14.90;99.90
26583;DHT22;14230;45.382;10.998;2023-03-23T07:13:48;14.80;99.90
26583;DHT22;14230;45.382;10.998;2023-03-23T07:16:19;14.80;99.90
26583;DHT22;14230;45.382;10.998;2023-03-23T07:18:46;14.80;99.90
26583;DHT22;14230;45.382;10.998;2023-03-23T07:21:12;14.80;99.90
26583;DHT22;14230;45.382;10.998;2023-03-23T07:23:40;15.00;99.90
26583;DHT22;14230;45.382;10.998;2023-03-23T07:26:10;15.50;99.90
26583;DHT22;14230;45.382;10.998;2023-03-23T07:28:41;15.90;99.90
26583;DHT22;14230;45.382;10.998;2023-03-23T07:31:23;16.10;99.90
26583;DHT22;14230;45.382;10.998;2023-03-23T07:33:50;16.00;99.90
26583;DHT22;14230;45.382;10.998;2023-03-23T07:36:17;16.10;99.90
26583;DHT22;14230;45.382;10.998;2023-03-23T07:38:43;16.20;99.90
26583;DHT22;14230;45.382;10.998;2023-03-23T07:41:10;16.50;99.90
26583;DHT22;14230;45.382;10.998;2023-03-23T07:43:40;16.50;99.90
26583;DHT22;14230;45.382;10.998;2023-03-23T07:46:10;16.60;99.90
26583;DHT22;14230;45.382;10.998;2023-03-23T07:48:49;16.80;99.90
26583;DHT22;14230;45.382;10.998;2023-03-23T07:51:17;17.40;99.90
26583;DHT22;14230;45.382;10.998;2023-03-23T07:53:47;17.70;99.90
26583;DHT22;14230;45.382;10.998;2023-03-23T07:56:34;18.20;99.90
26583;DHT22;14230;45.382;10.998;2023-03-23T07:59:14;19.00;99.90
26583;DHT22;14230;45.382;10.998;2023-03-23T08:01:42;19.50;99.90
26583;DHT22;14230;45.382;10.998;2023-03-23T08:04:35;19.30;99.90
26583;DHT22;14230;45.382;10.998;2023-03-23T08:07:31;19.60;99.90
26583;DHT22;14230;45.382;10.998;2023-03-23T08:10:22;20.00;99.90
26583;DHT22;14230;45.382;10.998;2023-03-23T08:13:15;20.10;99.90
26583;DHT22;14230;45.382;10.998;2023-03-23T08:15:51;19.50;99.90
26583;DHT22;14230;45.382;10.998;2023-03-23T08:18:36;19.20;99.90
26583;DHT22;14230;45.382;10.998;2023-03-23T08:21:38;19.70;99.90
26583;DHT22;14230;45.382;10.998;2023-03-23T08:24:33;20.40;99.90
26583;DHT22;14230;45.382;10.998;2023-03-23T08:27:25;20.80;99.90
26583;DHT22;14230;45.382;10.998;2023-03-23T08:30:13;20.90;99.90
26583;DHT22;14230;45.382;10.998;2023-03-23T08:32:43;21.70;99.90
26583;DHT22;14230;45.382;10.998;2023-03-23T08:35:23;22.90;99.90
26583;DHT22;14230;45.382;10.998;2023-03-23T08:38:13;23.70;99.90
26583;DHT22;14230;45.382;10.998;2023-03-23T08:41:09;23.60;99.90
26583;DHT22;14230;45.382;10.998;2023-03-23T08:43:56;23.70;99.90
26583;DHT22;14230;45.382;10.998;2023-03-23T08:46:49;24.50;99.70
26583;DHT22;14230;45.382;10.998;2023-03-23T08:49:46;25.50;97.90
26583;DHT22;14230;45.382;10.998;2023-03-23T08:52:31;25.70;97.00
26583;DHT22;14230;45.382;10.998;2023-03-23T08:55:13;26.00;96.20
26583;DHT22;14230;45.382;10.998;2023-03-23T08:57:54;25.20;96.00
26583;DHT22;14230;45.382;10.998;2023-03-23T09:00:41;24.50;97.10
26583;DHT22;14230;45.382;10.998;2023-03-23T09:03:18;25.00;96.80
26583;DHT22;14230;45.382;10.998;2023-03-23T09:06:05;25.30;95.60
26583;DHT22;14230;45.382;10.998;2023-03-23T09:08:42;25.90;94.70
26583;DHT22;14230;45.382;10.998;2023-03-23T09:11:11;25.70;94.40
26583;DHT22;14230;45.382;10.998;2023-03-23T09:13:39;25.70;94.20
26583;DHT22;14230;45.382;10.998;2023-03-23T09:16:07;25.50;94.20
26583;DHT22;14230;45.382;10.998;2023-03-23T09:18:35;25.70;93.80
26583;DHT22;14230;45.382;10.998;2023-03-23T09:21:02;25.40;93.80
26583;DHT22;14230;45.382;10.998;2023-03-23T09:23:30;24.70;94.40
26583;DHT22;14230;45.382;10.998;2023-03-23T09:25:56;24.30;94.80
26583;DHT22;14230;45.382;10.998;2023-03-23T09:28:23;23.60;95.30
26583;DHT22;14230;45.382;10.998;2023-03-23T09:30:49;23.50;95.90
26583;DHT22;14230;45.382;10.998;2023-03-23T09:33:17;23.70;96.10
26583;DHT22;14230;45.382;10.998;2023-03-23T09:35:44;24.60;95.30
26583;DHT22;14230;45.382;10.998;2023-03-23T09:38:10;25.50;94.60
26583;DHT22;14230;45.382;10.998;2023-03-23T09:40:48;26.60;92.90
26583;DHT22;14230;45.382;10.998;2023-03-23T09:48:40;25.80;91.50
26583;DHT22;14230;45.382;10.998;2023-03-23T09:53:50;25.90;91.10
26583;DHT22;14230;45.382;10.998;2023-03-23T09:56:17;26.10;90.90
26583;DHT22;14230;45.382;10.998;2023-03-23T09:58:55;26.00;90.90
26583;DHT22;14230;45.382;10.998;2023-03-23T10:04:03;26.60;90.20
26583;DHT22;14230;45.382;10.998;2023-03-23T10:06:31;26.90;89.30
26583;DHT22;14230;45.382;10.998;2023-03-23T10:09:00;26.90;89.50
26583;DHT22;14230;45.382;10.998;2023-03-23T10:11:50;27.30;88.10
26583;DHT22;14230;45.382;10.998;2023-03-23T10:17:16;28.60;85.00
26583;DHT22;14230;45.382;10.998;2023-03-23T10:26:06;26.30;86.80
26583;DHT22;14230;45.382;10.998;2023-03-23T10:28:37;25.20;90.20
26583;DHT22;14230;45.382;10.998;2023-03-23T10:31:10;24.20;91.60
26583;DHT22;14230;45.382;10.998;2023-03-23T10:33:43;23.70;92.70
26583;DHT22;14230;45.382;10.998;2023-03-23T10:38:44;23.90;92.70
26583;DHT22;14230;45.382;10.998;2023-03-23T10:41:17;24.20;92.40
26583;DHT22;14230;45.382;10.998;2023-03-23T10:43:45;24.50;92.40
26583;DHT22;14230;45.382;10.998;2023-03-23T10:46:37;24.70;91.80
26583;DHT22;14230;45.382;10.998;2023-03-23T10:49:12;25.30;91.60
26583;DHT22;14230;45.382;10.998;2023-03-23T10:51:43;25.20;91.50
26583;DHT22;14230;45.382;10.998;2023-03-23T10:54:10;24.90;91.60
26583;DHT22;14230;45.382;10.998;2023-03-23T10:56:40;24.50;92.30
26583;DHT22;14230;45.382;10.998;2023-03-23T10:59:19;24.70;92.10
26583;DHT22;14230;45.382;10.998;2023-03-23T11:01:53;24.70;91.50
26583;DHT22;14230;45.382;10.998;2023-03-23T11:04:22;24.40;92.00
26583;DHT22;14230;45.382;10.998;2023-03-23T11:06:57;24.10;92.50
26583;DHT22;14230;45.382;10.998;2023-03-23T11:09:35;23.80;93.10
26583;DHT22;14230;45.382;10.998;2023-03-23T11:12:03;23.50;93.30
26583;DHT22;14230;45.382;10.998;2023-03-23T11:14:31;23.30;93.70
26583;DHT22;14230;45.382;10.998;2023-03-23T11:17:02;22.90;93.80
26583;DHT22;14230;45.382;10.998;2023-03-23T11:19:34;22.70;94.10
26583;DHT22;14230;45.382;10.998;2023-03-23T11:24:36;22.10;94.60
26583;DHT22;14230;45.382;10.998;2023-03-23T11:27:03;22.20;94.80
26583;DHT22;14230;45.382;10.998;2023-03-23T11:29:33;22.30;94.80
26583;DHT22;14230;45.382;10.998;2023-03-23T11:34:53;22.20;94.70
26583;DHT22;14230;45.382;10.998;2023-03-23T11:37:27;22.20;95.00
26583;DHT22;14230;45.382;10.998;2023-03-23T11:42:36;22.50;94.70
26583;DHT22;14230;45.382;10.998;2023-03-23T11:45:34;22.30;94.70
26583;DHT22;14230;45.382;10.998;2023-03-23T11:50:55;22.20;95.00
26583;DHT22;14230;45.382;10.998;2023-03-23T11:56:19;22.40;95.10
26583;DHT22;14230;45.382;10.998;2023-03-23T11:58:48;22.40;95.40
26583;DHT22;14230;45.382;10.998;2023-03-23T12:01:24;22.50;94.80
26583;DHT22;14230;45.382;10.998;2023-03-23T12:17:38;22.00;96.00
26583;DHT22;14230;45.382;10.998;2023-03-23T12:20:27;22.00;96.10
26583;DHT22;14230;45.382;10.998;2023-03-23T12:25:56;22.20;95.60
26583;DHT22;14230;45.382;10.998;2023-03-23T12:28:30;22.30;95.90
26583;DHT22;14230;45.382;10.998;2023-03-23T12:42:14;22.00;95.70
26583;DHT22;14230;45.382;10.998;2023-03-23T12:44:55;21.90;95.40
26583;DHT22;14230;45.382;10.998;2023-03-23T12:55:24;21.30;96.00
26583;DHT22;14230;45.382;10.998;2023-03-23T12:58:04;21.20;96.20
26583;DHT22;14230;45.382;10.998;2023-03-23T13:03:24;21.30;95.50
26583;DHT22;14230;45.382;10.998;2023-03-23T13:06:07;21.40;94.70
26583;DHT22;14230;45.382;10.998;2023-03-23T13:08:40;21.50;94.30
26583;DHT22;14230;45.382;10.998;2023-03-23T13:11:14;21.60;94.20
26583;DHT22;14230;45.382;10.998;2023-03-23T13:13:56;21.70;94.50
26583;DHT22;14230;45.382;10.998;2023-03-23T13:16:49;21.70;94.00
26583;DHT22;14230;45.382;10.998;2023-03-23T13:19:59;21.60;93.60
26583;DHT22;14230;45.382;10.998;2023-03-23T13:28:20;21.40;92.80
26583;DHT22;14230;45.382;10.998;2023-03-23T13:33:33;21.60;92.90
26583;DHT22;14230;45.382;10.998;2023-03-23T13:36:13;21.70;93.10
26583;DHT22;14230;45.382;10.998;2023-03-23T13:38:50;22.00;93.00
26583;DHT22;14230;45.382;10.998;2023-03-23T13:41:18;22.30;93.50
26583;DHT22;14230;45.382;10.998;2023-03-23T13:43:48;22.40;93.50
26583;DHT22;14230;45.382;10.998;2023-03-23T13:46:26;22.60;92.40
26583;DHT22;14230;45.382;10.998;2023-03-23T13:49:18;22.80;92.70
26583;DHT22;14230;45.382;10.998;2023-03-23T13:54:30;22.90;91.60
26583;DHT22;14230;45.382;10.998;2023-03-23T13:57:01;23.00;92.50
26583;DHT22;14230;45.382;10.998;2023-03-23T13:59:47;23.00;92.80
26583;DHT22;14230;45.382;10.998;2023-03-23T14:02:28;22.80;93.10
26583;DHT22;14230;45.382;10.998;2023-03-23T14:04:57;22.60;93.00
26583;DHT22;14230;45.382;10.998;2023-03-23T14:07:23;22.40;93.90
26583;DHT22;14230;45.382;10.998;2023-03-23T14:09:50;22.40;93.80
26583;DHT22;14230;45.382;10.998;2023-03-23T14:12:20;22.50;93.80
26583;DHT22;14230;45.382;10.998;2023-03-23T14:14:50;22.50;93.70
26583;DHT22;14230;45.382;10.998;2023-03-23T14:17:22;22.70;93.70
26583;DHT22;14230;45.382;10.998;2023-03-23T14:19:53;22.70;93.00
26583;DHT22;14230;45.382;10.998;2023-03-23T14:22:31;22.80;92.90
26583;DHT22;14230;45.382;10.998;2023-03-23T14:25:08;22.70;92.30
26583;DHT22;14230;45.382;10.998;2023-03-23T14:27:36;22.60;92.40
26583;DHT22;14230;45.382;10.998;2023-03-23T14:30:08;22.50;93.00
26583;DHT22;14230;45.382;10.998;2023-03-23T14:32:35;22.40;93.40
26583;DHT22;14230;45.382;10.998;2023-03-23T14:35:28;22.30;93.20
26583;DHT22;14230;45.382;10.998;2023-03-23T14:37:55;22.30;93.40
26583;DHT22;14230;45.382;10.998;2023-03-23T14:40:22;22.20;93.50
26583;DHT22;14230;45.382;10.998;2023-03-23T14:42:50;22.10;92.90
26583;DHT22;14230;45.382;10.998;2023-03-23T14:45:19;22.00;92.90
26583;DHT22;14230;45.382;10.998;2023-03-23T14:47:52;22.00;93.10
26583;DHT22;14230;45.382;10.998;2023-03-23T14:50:38;22.00;93.10
26583;DHT22;14230;45.382;10.998;2023-03-23T14:53:32;21.90;92.20
26583;DHT22;14230;45.382;10.998;2023-03-23T14:56:01;21.90;92.10
26583;DHT22;14230;45.382;10.998;2023-03-23T14:58:30;21.90;92.30
26583;DHT22;14230;45.382;10.998;2023-03-23T15:01:04;21.70;92.90
26583;DHT22;14230;45.382;10.998;2023-03-23T15:03:40;21.80;92.70
26583;DHT22;14230;45.382;10.998;2023-03-23T15:06:14;21.80;91.50
26583;DHT22;14230;45.382;10.998;2023-03-23T15:08:42;21.70;91.50
26583;DHT22;14230;45.382;10.998;2023-03-23T15:13:48;21.60;91.30
26583;DHT22;14230;45.382;10.998;2023-03-23T15:16:27;21.60;91.40
26583;DHT22;14230;45.382;10.998;2023-03-23T15:21:35;21.70;91.70
26583;DHT22;14230;45.382;10.998;2023-03-23T15:24:27;21.80;91.90
26583;DHT22;14230;45.382;10.998;2023-03-23T15:26:54;21.90;92.50
26583;DHT22;14230;45.382;10.998;2023-03-23T15:29:28;21.80;91.90
26583;DHT22;14230;45.382;10.998;2023-03-23T15:31:55;21.70;91.70
26583;DHT22;14230;45.382;10.998;2023-03-23T15:37:01;21.60;91.80
26583;DHT22;14230;45.382;10.998;2023-03-23T15:39:30;21.40;91.40
26583;DHT22;14230;45.382;10.998;2023-03-23T15:41:59;21.40;91.50
26583;DHT22;14230;45.382;10.998;2023-03-23T15:44:30;21.40;91.80
26583;DHT22;14230;45.382;10.998;2023-03-23T15:47:17;21.30;91.90
26583;DHT22;14230;45.382;10.998;2023-03-23T15:49:46;21.30;91.90
26583;DHT22;14230;45.382;10.998;2023-03-23T15:52:13;21.30;92.00
26583;DHT22;14230;45.382;10.998;2023-03-23T15:54:49;21.30;92.00
26583;DHT22;14230;45.382;10.998;2023-03-23T15:57:16;21.20;91.60
26583;DHT22;14230;45.382;10.998;2023-03-23T15:59:42;21.20;91.70
26583;DHT22;14230;45.382;10.998;2023-03-23T16:02:21;21.10;91.70
26583;DHT22;14230;45.382;10.998;2023-03-23T16:04:49;21.10;91.80
26583;DHT22;14230;45.382;10.998;2023-03-23T16:07:21;21.10;91.50
26583;DHT22;14230;45.382;10.998;2023-03-23T16:09:50;21.10;91.30
26583;DHT22;14230;45.382;10.998;2023-03-23T16:12:17;21.00;91.20
26583;DHT22;14230;45.382;10.998;2023-03-23T16:14:45;20.90;91.40
26583;DHT22;14230;45.382;10.998;2023-03-23T16:17:15;20.90;90.40
26583;DHT22;14230;45.382;10.998;2023-03-23T16:19:43;20.80;90.40
26583;DHT22;14230;45.382;10.998;2023-03-23T16:22:11;20.70;90.60
26583;DHT22;14230;45.382;10.998;2023-03-23T16:24:39;20.70;90.70
26583;DHT22;14230;45.382;10.998;2023-03-23T16:27:08;20.70;90.80
26583;DHT22;14230;45.382;10.998;2023-03-23T16:29:36;20.60;90.90
26583;DHT22;14230;45.382;10.998;2023-03-23T16:32:23;20.60;91.00
26583;DHT22;14230;45.382;10.998;2023-03-23T16:34:51;20.50;90.50
26583;DHT22;14230;45.382;10.998;2023-03-23T16:37:19;20.50;90.80
26583;DHT22;14230;45.382;10.998;2023-03-23T16:39:46;20.40;90.80
26583;DHT22;14230;45.382;10.998;2023-03-23T16:42:17;20.30;90.80
26583;DHT22;14230;45.382;10.998;2023-03-23T16:44:46;20.30;90.70
26583;DHT22;14230;45.382;10.998;2023-03-23T16:47:19;20.20;91.00
26583;DHT22;14230;45.382;10.998;2023-03-23T16:49:51;20.20;90.80
26583;DHT22;14230;45.382;10.998;2023-03-23T16:52:20;20.10;90.70
26583;DHT22;14230;45.382;10.998;2023-03-23T16:54:48;20.10;91.20
26583;DHT22;14230;45.382;10.998;2023-03-23T16:57:15;20.00;91.00
26583;DHT22;14230;45.382;10.998;2023-03-23T16:59:43;19.90;91.10
26583;DHT22;14230;45.382;10.998;2023-03-23T17:02:11;19.80;91.00
26583;DHT22;14230;45.382;10.998;2023-03-23T17:04:42;19.70;91.40
26583;DHT22;14230;45.382;10.998;2023-03-23T17:07:11;19.70;91.50
26583;DHT22;14230;45.382;10.998;2023-03-23T17:09:39;19.50;91.70
26583;DHT22;14230;45.382;10.998;2023-03-23T17:12:08;19.50;91.60
26583;DHT22;14230;45.382;10.998;2023-03-23T17:14:36;19.40;91.70
26583;DHT22;14230;45.382;10.998;2023-03-23T17:17:03;19.30;91.90
26583;DHT22;14230;45.382;10.998;2023-03-23T17:19:31;19.20;91.80
26583;DHT22;14230;45.382;10.998;2023-03-23T17:21:58;19.20;91.70
26583;DHT22;14230;45.382;10.998;2023-03-23T17:24:26;19.00;91.30
26583;DHT22;14230;45.382;10.998;2023-03-23T17:26:54;19.00;91.10
26583;DHT22;14230;45.382;10.998;2023-03-23T17:29:21;18.90;91.30
26583;DHT22;14230;45.382;10.998;2023-03-23T17:31:49;18.80;91.20
26583;DHT22;14230;45.382;10.998;2023-03-23T17:34:18;18.70;91.10
26583;DHT22;14230;45.382;10.998;2023-03-23T17:36:46;18.60;91.50
26583;DHT22;14230;45.382;10.998;2023-03-23T17:39:13;18.50;91.50
26583;DHT22;14230;45.382;10.998;2023-03-23T17:41:41;18.50;91.60
26583;DHT22;14230;45.382;10.998;2023-03-23T17:44:08;18.40;92.00
26583;DHT22;14230;45.382;10.998;2023-03-23T17:46:35;18.30;92.10